createdAt,value
2018-02-04T00:01:18.144Z,2.80
2018-02-04T00:03:46.432Z,2.80
2018-02-04T00:06:14.825Z,2.90
2018-02-04T00:08:43.132Z,2.80
2018-02-04T00:11:11.509Z,2.80
2018-02-04T00:13:39.840Z,2.80
2018-02-04T00:16:08.144Z,2.90
2018-02-04T00:18:36.534Z,2.90
2018-02-04T00:21:04.874Z,2.80
2018-02-04T00:23:34.734Z,2.70
2018-02-04T00:26:03.843Z,2.70
2018-02-04T00:28:32.181Z,2.70
2018-02-04T00:31:00.499Z,2.80
2018-02-04T00:33:29.569Z,2.80
2018-02-04T00:35:58.269Z,2.80
2018-02-04T00:38:26.564Z,2.80
2018-02-04T00:40:54.876Z,2.90
2018-02-04T00:43:23.211Z,2.90
2018-02-04T00:45:51.532Z,2.90
2018-02-04T00:48:20.125Z,3.00
2018-02-04T00:50:48.609Z,3.00
2018-02-04T00:53:16.929Z,3.00
2018-02-04T00:55:45.998Z,3.00
2018-02-04T00:58:14.348Z,3.00
2018-02-04T01:00:42.673Z,3.00
2018-02-04T01:03:11.774Z,3.00
2018-02-04T01:05:40.098Z,3.00
2018-02-04T01:08:08.396Z,3.10
2018-02-04T01:10:37.482Z,3.10
2018-02-04T01:13:05.802Z,3.10
2018-02-04T01:15:34.096Z,3.10
2018-02-04T01:18:02.404Z,3.10
2018-02-04T01:20:30.767Z,3.10
2018-02-04T01:22:59.866Z,3.20
2018-02-04T01:25:28.188Z,3.20
2018-02-04T01:27:56.479Z,3.30
2018-02-04T01:30:24.772Z,3.30
2018-02-04T01:32:53.099Z,3.30
2018-02-04T01:35:22.187Z,3.40
2018-02-04T01:37:50.478Z,3.40
2018-02-04T01:40:19.518Z,3.40
2018-02-04T01:42:47.825Z,3.40
2018-02-04T01:45:16.136Z,3.40
2018-02-04T01:47:44.436Z,3.40
2018-02-04T01:50:13.515Z,3.50
2018-02-04T01:52:41.822Z,3.50
2018-02-04T01:55:10.126Z,3.50
2018-02-04T01:57:38.406Z,3.50
2018-02-04T02:00:06.702Z,3.60
2018-02-04T02:02:35.005Z,3.60
2018-02-04T02:05:03.308Z,3.60
2018-02-04T02:07:32.593Z,3.60
2018-02-04T02:10:00.909Z,3.60
2018-02-04T02:12:29.964Z,3.60
2018-02-04T02:14:58.942Z,3.70
2018-02-04T02:17:27.278Z,3.70
2018-02-04T02:19:56.361Z,3.70
2018-02-04T02:22:24.653Z,3.70
2018-02-04T02:24:53.707Z,3.70
2018-02-04T02:27:22.011Z,3.70
2018-02-04T02:29:50.333Z,3.70
2018-02-04T02:32:18.654Z,3.70
2018-02-04T02:34:46.987Z,3.70
2018-02-04T02:37:16.040Z,3.70
2018-02-04T02:39:44.359Z,3.70
2018-02-04T02:42:13.471Z,3.70
2018-02-04T02:44:42.531Z,3.70
2018-02-04T02:47:10.832Z,3.70
2018-02-04T02:49:39.124Z,3.70
2018-02-04T02:52:08.203Z,3.70
2018-02-04T02:54:36.494Z,3.70
2018-02-04T02:57:04.871Z,3.70
2018-02-04T02:59:33.199Z,3.70
2018-02-04T03:02:01.501Z,3.80
2018-02-04T03:04:29.789Z,3.80
2018-02-04T03:06:58.845Z,3.80
2018-02-04T03:09:28.048Z,3.90
2018-02-04T03:11:57.125Z,3.90
2018-02-04T03:14:25.431Z,3.90
2018-02-04T03:16:54.509Z,3.90
2018-02-04T03:19:22.819Z,3.90
2018-02-04T03:21:51.108Z,3.90
2018-02-04T03:24:19.497Z,3.90
2018-02-04T03:26:47.785Z,4.00
2018-02-04T03:29:16.061Z,4.00
2018-02-04T03:31:44.382Z,4.00
2018-02-04T03:34:12.671Z,4.00
2018-02-04T03:36:40.987Z,4.10
2018-02-04T03:39:09.275Z,4.10
2018-02-04T03:41:37.599Z,4.10
2018-02-04T03:44:05.913Z,4.10
2018-02-04T03:46:34.965Z,4.10
2018-02-04T03:49:03.340Z,4.00
2018-02-04T03:51:31.635Z,4.10
2018-02-04T03:53:59.926Z,4.10
2018-02-04T03:56:28.247Z,4.20
2018-02-04T03:58:57.290Z,4.20
2018-02-04T04:01:25.597Z,4.20
2018-02-04T04:03:53.897Z,4.20
2018-02-04T04:06:22.211Z,4.20
2018-02-04T04:08:50.497Z,4.20
2018-02-04T04:11:18.789Z,4.20
2018-02-04T04:13:47.081Z,4.10
2018-02-04T04:16:15.453Z,4.10
2018-02-04T04:18:43.789Z,4.10
2018-02-04T04:21:12.095Z,4.10
2018-02-04T04:23:40.432Z,4.10
2018-02-04T04:26:08.773Z,4.10
2018-02-04T04:28:37.901Z,4.10
2018-02-04T04:31:06.303Z,4.10
2018-02-04T04:33:34.601Z,4.10
2018-02-04T04:36:03.679Z,4.10
2018-02-04T04:38:31.976Z,4.10
2018-02-04T04:41:00.313Z,4.10
2018-02-04T04:43:28.605Z,4.10
2018-02-04T04:45:56.929Z,4.10
2018-02-04T04:48:25.233Z,4.10
2018-02-04T04:50:53.551Z,4.10
2018-02-04T04:53:21.862Z,4.00
2018-02-04T04:55:50.165Z,4.00
2018-02-04T04:58:19.287Z,4.00
2018-02-04T05:00:47.573Z,4.00
2018-02-04T05:03:15.857Z,4.00
2018-02-04T05:05:44.189Z,4.00
2018-02-04T05:08:12.627Z,4.00
2018-02-04T05:10:40.926Z,4.00
2018-02-04T05:13:09.225Z,4.00
2018-02-04T05:15:37.604Z,4.00
2018-02-04T05:18:06.744Z,4.10
2018-02-04T05:20:36.079Z,4.10
2018-02-04T05:23:04.413Z,4.10
2018-02-04T05:25:32.698Z,4.10
2018-02-04T05:28:01.004Z,4.10
2018-02-04T05:30:29.333Z,4.10
2018-02-04T05:32:57.645Z,4.10
2018-02-04T05:35:25.949Z,4.10
2018-02-04T05:37:54.520Z,4.20
2018-02-04T05:40:22.901Z,4.20
2018-02-04T05:42:51.974Z,4.20
2018-02-04T05:45:20.297Z,4.20
2018-02-04T05:47:49.489Z,4.30
2018-02-04T05:50:18.554Z,4.30
2018-02-04T05:52:46.944Z,4.30
2018-02-04T05:55:15.303Z,4.30
2018-02-04T05:57:43.615Z,4.30
2018-02-04T06:00:11.933Z,4.30
2018-02-04T06:02:40.989Z,4.30
2018-02-04T06:05:09.298Z,4.20
2018-02-04T06:07:37.597Z,4.30
2018-02-04T06:10:06.725Z,4.30
2018-02-04T06:12:35.025Z,4.30
2018-02-04T06:15:03.346Z,4.30
2018-02-04T06:17:32.414Z,4.30
2018-02-04T06:20:00.937Z,4.30
2018-02-04T06:22:29.983Z,4.30
2018-02-04T06:24:58.287Z,4.30
2018-02-04T06:27:27.439Z,4.40
2018-02-04T06:29:55.747Z,4.40
2018-02-04T06:32:24.033Z,4.40
2018-02-04T06:34:52.323Z,4.40
2018-02-04T06:37:20.653Z,4.40
2018-02-04T06:39:49.729Z,4.40
2018-02-04T06:42:18.013Z,4.40
2018-02-04T06:44:46.319Z,4.40
2018-02-04T06:47:14.635Z,4.40
2018-02-04T06:49:43.133Z,4.40
2018-02-04T06:52:11.420Z,4.40
2018-02-04T06:54:39.707Z,4.50
2018-02-04T06:57:08.008Z,4.50
2018-02-04T06:59:37.105Z,4.50
2018-02-04T07:02:05.427Z,4.50
2018-02-04T07:04:33.785Z,4.50
2018-02-04T07:07:02.867Z,4.50
2018-02-04T07:09:32.044Z,4.50
2018-02-04T07:12:00.356Z,4.50
2018-02-04T07:14:29.383Z,4.40
2018-02-04T07:16:57.751Z,4.30
2018-02-04T07:19:26.809Z,4.20
2018-02-04T07:21:55.119Z,4.20
2018-02-04T07:24:23.455Z,4.20
2018-02-04T07:26:51.765Z,4.20
2018-02-04T07:29:20.105Z,4.20
2018-02-04T07:31:48.465Z,4.20
2018-02-04T07:34:17.601Z,4.20
2018-02-04T07:36:45.922Z,4.20
2018-02-04T07:39:14.249Z,4.20
2018-02-04T07:41:42.570Z,4.20
2018-02-04T07:44:10.997Z,4.20
2018-02-04T07:46:40.057Z,4.20
2018-02-04T07:49:08.401Z,4.20
2018-02-04T07:51:36.706Z,4.20
2018-02-04T07:54:05.073Z,4.20
2018-02-04T07:56:34.103Z,4.30
2018-02-04T07:59:03.160Z,4.30
2018-02-04T08:01:31.507Z,4.30
2018-02-04T08:04:00.593Z,4.40
2018-02-04T08:06:29.691Z,4.40
2018-02-04T08:08:58.027Z,4.40
2018-02-04T08:11:26.383Z,4.50
2018-02-04T08:13:54.725Z,4.50
2018-02-04T08:16:23.108Z,4.50
2018-02-04T08:18:51.423Z,4.50
2018-02-04T08:21:20.511Z,4.50
2018-02-04T08:23:48.811Z,4.50
2018-02-04T08:26:17.904Z,4.60
2018-02-04T08:28:47.257Z,4.70
2018-02-04T08:31:15.557Z,4.70
2018-02-04T08:33:44.757Z,4.70
2018-02-04T08:36:13.399Z,4.70
2018-02-04T08:38:41.715Z,4.70
2018-02-04T08:41:10.036Z,4.70
2018-02-04T08:43:39.961Z,4.90
2018-02-04T08:46:09.317Z,5.00
2018-02-04T08:48:37.937Z,5.00
2018-02-04T08:51:06.261Z,5.10
2018-02-04T08:53:35.545Z,5.20
2018-02-04T08:56:04.903Z,5.40
2018-02-04T08:58:33.211Z,5.30
2018-02-04T09:01:01.521Z,5.40
2018-02-04T09:03:30.835Z,5.40
2018-02-04T09:06:00.941Z,5.40
2018-02-04T09:08:29.275Z,5.40
2018-02-04T09:10:57.611Z,5.40
2018-02-04T09:13:26.675Z,5.60
2018-02-04T09:15:54.976Z,5.60
2018-02-04T09:18:23.528Z,5.60
2018-02-04T09:20:51.856Z,5.60
2018-02-04T09:23:20.932Z,5.60
2018-02-04T09:25:49.225Z,5.60
2018-02-04T09:28:19.211Z,5.70
2018-02-04T09:30:47.591Z,5.60
2018-02-04T09:33:15.901Z,5.70
2018-02-04T09:35:44.209Z,5.70
2018-02-04T09:38:14.372Z,5.70
2018-02-04T09:40:42.734Z,5.70
2018-02-04T09:43:11.048Z,5.70
2018-02-04T09:45:39.371Z,5.70
2018-02-04T09:48:07.669Z,5.70
2018-02-04T09:50:36.718Z,5.50
2018-02-04T09:53:05.014Z,5.50
2018-02-04T09:55:33.307Z,5.50
2018-02-04T09:58:02.206Z,5.50
2018-02-04T10:00:30.532Z,5.50
2018-02-04T10:02:58.832Z,5.50
2018-02-04T10:05:27.205Z,5.60
2018-02-04T10:07:55.525Z,5.70
2018-02-04T10:10:24.839Z,5.80
2018-02-04T10:12:54.921Z,5.80
2018-02-04T10:15:23.267Z,5.70
2018-02-04T10:17:51.578Z,5.60
2018-02-04T10:20:19.882Z,5.60
2018-02-04T10:22:48.233Z,5.60
2018-02-04T10:25:16.622Z,5.60
2018-02-04T10:27:44.940Z,5.60
2018-02-04T10:30:13.300Z,5.50
2018-02-04T10:32:41.693Z,5.50
2018-02-04T10:35:09.990Z,5.40
2018-02-04T10:37:39.115Z,5.30
2018-02-04T10:40:08.387Z,5.20
2018-02-04T10:42:38.042Z,5.10
2018-02-04T10:45:07.818Z,5.10
2018-02-04T10:47:36.189Z,5.10
2018-02-04T10:50:04.499Z,5.10
2018-02-04T10:52:32.826Z,5.00
2018-02-04T10:55:01.164Z,5.00
2018-02-04T10:57:29.469Z,5.00
2018-02-04T10:59:57.788Z,5.10
2018-02-04T11:02:26.090Z,5.10
2018-02-04T11:04:54.386Z,5.20
2018-02-04T11:07:22.919Z,5.20
2018-02-04T11:09:51.224Z,5.30
2018-02-04T11:12:20.246Z,5.30
2018-02-04T11:14:48.570Z,5.40
2018-02-04T11:17:16.886Z,5.40
2018-02-04T11:19:45.206Z,5.40
2018-02-04T11:22:14.330Z,5.50
2018-02-04T11:24:42.729Z,5.50
2018-02-04T11:27:11.042Z,5.60
2018-02-04T11:29:39.361Z,5.60
2018-02-04T11:32:20.992Z,5.70
2018-02-04T11:34:49.290Z,5.60
2018-02-04T11:37:17.632Z,5.70
2018-02-04T11:39:46.030Z,5.80
2018-02-04T11:42:14.322Z,5.80
2018-02-04T11:44:42.665Z,5.90
2018-02-04T11:47:12.099Z,6.10
2018-02-04T11:49:41.020Z,6.10
2018-02-04T11:52:09.345Z,6.20
2018-02-04T11:54:38.411Z,6.30
2018-02-04T11:57:06.716Z,6.30
2018-02-04T11:59:36.418Z,6.40
2018-02-04T12:02:04.920Z,6.40
2018-02-04T12:04:34.002Z,6.60
2018-02-04T12:07:02.363Z,6.50
2018-02-04T12:09:30.714Z,6.70
2018-02-04T12:11:59.028Z,6.90
2018-02-04T12:14:27.432Z,6.90
2018-02-04T12:16:55.734Z,7.00
2018-02-04T12:19:24.843Z,6.90
2018-02-04T12:21:54.417Z,6.90
2018-02-04T12:24:22.988Z,6.90
2018-02-04T12:26:52.102Z,6.90
2018-02-04T12:29:20.431Z,6.90
2018-02-04T12:31:48.809Z,7.00
2018-02-04T12:34:17.908Z,7.30
2018-02-04T12:36:46.223Z,7.30
2018-02-04T12:39:14.511Z,7.50
2018-02-04T12:41:43.088Z,7.60
2018-02-04T12:44:11.427Z,7.70
2018-02-04T12:46:40.507Z,7.80
2018-02-04T12:49:08.824Z,7.80
2018-02-04T12:51:38.118Z,8.00
2018-02-04T12:54:06.433Z,8.00
2018-02-04T12:56:35.014Z,8.20
2018-02-04T12:59:03.343Z,8.30
2018-02-04T13:01:31.700Z,8.40
2018-02-04T13:04:00.026Z,8.40
2018-02-04T13:06:28.348Z,8.40
2018-02-04T13:08:56.663Z,8.40
2018-02-04T13:11:24.985Z,8.40
2018-02-04T13:13:54.064Z,8.30
2018-02-04T13:16:22.368Z,8.30
2018-02-04T13:18:51.432Z,8.20
2018-02-04T13:21:19.710Z,8.20
2018-02-04T13:23:48.025Z,8.20
2018-02-04T13:26:17.107Z,8.30
2018-02-04T13:28:46.172Z,8.30
2018-02-04T13:31:15.118Z,8.20
2018-02-04T13:33:44.318Z,8.00
2018-02-04T13:36:12.588Z,7.90
2018-02-04T13:38:40.890Z,7.70
2018-02-04T13:41:10.048Z,7.50
2018-02-04T13:43:38.349Z,7.50
2018-02-04T13:46:06.712Z,7.50
2018-02-04T13:48:35.166Z,7.50
2018-02-04T13:51:03.524Z,7.60
2018-02-04T13:53:32.587Z,7.50
2018-02-04T13:56:00.904Z,7.50
2018-02-04T13:58:29.958Z,7.40
2018-02-04T14:00:58.264Z,7.40
2018-02-04T14:03:26.555Z,7.30
2018-02-04T14:05:54.856Z,7.30
2018-02-04T14:08:23.182Z,7.20
2018-02-04T14:10:51.492Z,7.10
2018-02-04T14:13:19.813Z,7.10
2018-02-04T14:15:48.122Z,7.00
2018-02-04T14:18:16.419Z,6.90
2018-02-04T14:20:44.762Z,6.80
2018-02-04T14:23:13.062Z,6.80
2018-02-04T14:25:41.434Z,6.70
2018-02-04T14:28:10.508Z,6.60
2018-02-04T14:30:39.557Z,6.50
2018-02-04T14:33:07.872Z,6.50
2018-02-04T14:35:36.202Z,6.40
2018-02-04T14:38:04.491Z,6.20
2018-02-04T14:40:32.786Z,6.20
2018-02-04T14:43:01.122Z,6.10
2018-02-04T14:45:30.689Z,6.00
2018-02-04T14:47:59.852Z,6.00
2018-02-04T14:50:28.168Z,6.00
2018-02-04T14:52:56.761Z,6.00
2018-02-04T14:55:26.705Z,6.00
2018-02-04T14:57:55.874Z,5.90
2018-02-04T15:00:24.191Z,5.90
2018-02-04T15:02:53.260Z,5.90
2018-02-04T15:05:21.560Z,5.80
2018-02-04T15:07:49.864Z,5.90
2018-02-04T15:10:18.948Z,5.70
2018-02-04T15:12:47.258Z,5.70
2018-02-04T15:15:15.841Z,5.70
2018-02-04T15:17:44.137Z,5.70
2018-02-04T15:20:12.658Z,5.60
2018-02-04T15:22:41.020Z,5.50
2018-02-04T15:25:09.384Z,5.50
2018-02-04T15:27:37.700Z,5.50
2018-02-04T15:30:06.248Z,5.40
2018-02-04T15:32:34.550Z,5.50
2018-02-04T15:35:02.874Z,5.50
2018-02-04T15:37:31.174Z,5.50
2018-02-04T15:40:00.480Z,5.50
2018-02-04T15:42:29.550Z,5.50
2018-02-04T15:44:57.879Z,5.40
2018-02-04T15:47:26.182Z,5.50
2018-02-04T15:49:54.496Z,5.50
2018-02-04T15:52:22.805Z,5.50
2018-02-04T15:54:51.964Z,5.50
2018-02-04T15:57:20.267Z,5.40
2018-02-04T15:59:48.692Z,5.40
2018-02-04T16:02:17.008Z,5.30
2018-02-04T16:04:45.388Z,5.30
2018-02-04T16:07:13.694Z,5.20
2018-02-04T16:09:42.102Z,5.20
2018-02-04T16:12:11.158Z,5.00
2018-02-04T16:14:40.230Z,5.00
2018-02-04T16:17:08.528Z,5.00
2018-02-04T16:19:36.874Z,5.00
2018-02-04T16:22:05.200Z,4.90
2018-02-04T16:24:33.592Z,5.00
2018-02-04T16:27:01.906Z,4.90
2018-02-04T16:29:30.226Z,4.90
2018-02-04T16:31:58.606Z,4.80
2018-02-04T16:34:26.924Z,4.80
2018-02-04T16:36:55.228Z,4.80
2018-02-04T16:39:24.020Z,4.80
2018-02-04T16:41:52.327Z,4.80
2018-02-04T16:44:21.458Z,4.80
2018-02-04T16:46:49.821Z,4.80
2018-02-04T16:49:19.045Z,4.80
2018-02-04T16:51:47.466Z,4.90
2018-02-04T16:54:15.886Z,4.90
2018-02-04T16:56:44.294Z,4.90
2018-02-04T16:59:12.614Z,4.90
2018-02-04T17:01:41.010Z,4.90
2018-02-04T17:04:10.131Z,4.90
2018-02-04T17:06:39.313Z,4.90
2018-02-04T17:09:08.455Z,4.90
2018-02-04T17:11:36.791Z,4.90
2018-02-04T17:14:05.935Z,4.90
2018-02-04T17:16:34.270Z,4.90
2018-02-04T17:19:02.586Z,4.90
2018-02-04T17:21:31.047Z,4.90
2018-02-04T17:24:01.235Z,4.90
2018-02-04T17:26:29.821Z,4.90
2018-02-04T17:28:58.977Z,4.90
2018-02-04T17:31:28.411Z,4.80
2018-02-04T17:33:56.847Z,4.80
2018-02-04T17:36:25.969Z,4.80
2018-02-04T17:38:55.936Z,4.80
2018-02-04T17:41:24.446Z,4.80
2018-02-04T17:43:52.838Z,4.80
2018-02-04T17:46:21.344Z,4.80
2018-02-04T17:48:50.524Z,4.90
2018-02-04T17:51:19.855Z,4.90
2018-02-04T17:53:50.274Z,4.90
2018-02-04T17:56:19.414Z,4.90
2018-02-04T17:58:48.009Z,4.90
2018-02-04T18:01:17.895Z,4.90
2018-02-04T18:03:47.010Z,5.00
2018-02-04T18:06:16.171Z,5.00
2018-02-04T18:08:44.753Z,5.00
2018-02-04T18:11:13.109Z,5.00
2018-02-04T18:13:42.095Z,4.90
2018-02-04T18:16:10.391Z,5.00
2018-02-04T18:18:38.965Z,5.00
2018-02-04T18:21:07.273Z,5.00
2018-02-04T18:23:35.633Z,5.00
2018-02-04T18:26:03.973Z,5.00
2018-02-04T18:28:33.094Z,5.00
2018-02-04T18:31:02.349Z,4.90
2018-02-04T18:33:30.681Z,4.90
2018-02-04T18:35:59.113Z,4.90
2018-02-04T18:38:28.788Z,4.80
2018-02-04T18:40:57.907Z,4.80
2018-02-04T18:43:26.889Z,4.80
2018-02-04T18:45:55.471Z,4.70
2018-02-04T18:48:23.779Z,4.70
2018-02-04T18:50:52.104Z,4.70
2018-02-04T18:53:21.201Z,4.70
2018-02-04T18:55:50.429Z,4.70
2018-02-04T18:58:18.864Z,4.70
2018-02-04T19:00:48.103Z,4.80
2018-02-04T19:03:18.105Z,4.80
2018-02-04T19:05:46.427Z,4.80
2018-02-04T19:08:15.621Z,4.80
2018-02-04T19:10:43.931Z,4.80
2018-02-04T19:13:12.297Z,4.80
2018-02-04T19:15:40.605Z,4.80
2018-02-04T19:18:08.948Z,4.90
2018-02-04T19:20:37.477Z,4.90
2018-02-04T19:23:05.856Z,4.90
2018-02-04T19:25:34.283Z,4.90
2018-02-04T19:28:03.381Z,4.80
2018-02-04T19:30:32.488Z,4.80
2018-02-04T19:33:01.582Z,4.80
2018-02-04T19:35:31.148Z,4.80
2018-02-04T19:38:00.940Z,4.80
2018-02-04T19:40:29.243Z,4.80
2018-02-04T19:42:58.202Z,4.80
2018-02-04T19:45:26.507Z,4.70
2018-02-04T19:47:55.832Z,4.70
2018-02-04T19:50:25.002Z,4.70
2018-02-04T19:52:53.326Z,4.70
2018-02-04T19:55:21.859Z,4.70
2018-02-04T19:57:50.187Z,4.70
2018-02-04T20:00:18.528Z,4.70
2018-02-04T20:02:47.603Z,4.70
2018-02-04T20:05:16.726Z,4.70
2018-02-04T20:07:45.834Z,4.70
2018-02-04T20:10:14.150Z,4.70
2018-02-04T20:12:42.592Z,4.70
2018-02-04T20:15:10.941Z,4.70
2018-02-04T20:17:39.270Z,4.70
2018-02-04T20:20:07.593Z,4.70
2018-02-04T20:22:35.942Z,4.70
2018-02-04T20:25:04.469Z,4.70
2018-02-04T20:27:33.690Z,4.70
2018-02-04T20:30:02.785Z,4.70
2018-02-04T20:32:49.699Z,4.80
2018-02-04T20:35:18.791Z,4.80
2018-02-04T20:37:47.187Z,4.70
2018-02-04T20:40:16.328Z,4.70
2018-02-04T20:42:45.379Z,4.70
2018-02-04T20:45:14.925Z,4.70
2018-02-04T20:47:43.244Z,4.70
2018-02-04T20:50:11.608Z,4.70
2018-02-04T20:52:39.945Z,4.70
2018-02-04T20:55:09.023Z,4.70
2018-02-04T20:57:37.938Z,4.70
2018-02-04T21:00:07.018Z,4.70
2018-02-04T21:02:36.129Z,4.70
2018-02-04T21:05:06.132Z,4.70
2018-02-04T21:07:34.483Z,4.70
2018-02-04T21:10:02.801Z,4.70
2018-02-04T21:12:31.983Z,4.70
2018-02-04T21:15:00.397Z,4.70
2018-02-04T21:17:29.496Z,4.70
2018-02-04T21:19:58.612Z,4.70
2018-02-04T21:22:28.489Z,4.70
2018-02-04T21:24:56.883Z,4.70
2018-02-04T21:27:25.229Z,4.70
2018-02-04T21:29:53.628Z,4.70
2018-02-04T21:32:21.911Z,4.70
2018-02-04T21:34:51.575Z,4.60
2018-02-04T21:37:19.891Z,4.60
2018-02-04T21:39:48.331Z,4.60
2018-02-04T21:42:17.823Z,4.60
2018-02-04T21:44:47.184Z,4.60
2018-02-04T21:47:15.703Z,4.60
2018-02-04T21:49:44.040Z,4.60
2018-02-04T21:52:13.381Z,4.60
2018-02-04T21:54:42.562Z,4.60
2018-02-04T21:57:10.858Z,4.60
2018-02-04T21:59:40.140Z,4.60
2018-02-04T22:02:08.461Z,4.60
2018-02-04T22:04:36.798Z,4.60
2018-02-04T22:07:05.805Z,4.60
2018-02-04T22:09:34.151Z,4.60
2018-02-04T22:12:03.443Z,4.60
2018-02-04T22:14:32.834Z,4.60
2018-02-04T22:17:01.921Z,4.70
2018-02-04T22:19:32.264Z,4.60
2018-02-04T22:22:01.430Z,4.70
2018-02-04T22:24:29.801Z,4.70
2018-02-04T22:26:58.141Z,4.70
2018-02-04T22:29:26.710Z,4.70
2018-02-04T22:31:55.029Z,4.60
2018-02-04T22:34:24.359Z,4.60
2018-02-04T22:36:52.706Z,4.60
2018-02-04T22:39:21.014Z,4.60
2018-02-04T22:41:49.771Z,4.60
2018-02-04T22:44:18.322Z,4.60
2018-02-04T22:46:47.559Z,4.60
2018-02-04T22:49:15.874Z,4.60
2018-02-04T22:51:44.920Z,4.60
2018-02-04T22:54:13.323Z,4.60
2018-02-04T22:56:41.668Z,4.60
2018-02-04T22:59:10.802Z,4.60
2018-02-04T23:01:39.173Z,4.60
2018-02-04T23:04:07.511Z,4.60
2018-02-04T23:06:35.830Z,4.60
2018-02-04T23:09:04.123Z,4.60
2018-02-04T23:11:32.490Z,4.60
2018-02-04T23:14:00.799Z,4.60
2018-02-04T23:16:29.892Z,4.60
2018-02-04T23:18:58.265Z,4.60
2018-02-04T23:21:26.604Z,4.60
2018-02-04T23:23:54.916Z,4.60
2018-02-04T23:26:24.230Z,4.60
2018-02-04T23:28:52.714Z,4.60
2018-02-04T23:31:21.931Z,4.60
2018-02-04T23:33:50.257Z,4.60
2018-02-04T23:36:18.588Z,4.60
2018-02-04T23:38:46.934Z,4.60
2018-02-04T23:41:15.348Z,4.60
2018-02-04T23:43:43.710Z,4.60
2018-02-04T23:46:12.031Z,4.60
2018-02-04T23:48:40.366Z,4.60
2018-02-04T23:51:08.693Z,4.60
2018-02-04T23:53:38.045Z,4.70
2018-02-04T23:56:07.012Z,4.70
2018-02-04T23:58:35.357Z,4.70
